createdAt,value
2017-09-28T00:01:42.906Z,94.28
2017-09-28T00:04:11.959Z,95.52
2017-09-28T00:06:40.991Z,94.53
2017-09-28T00:09:10.039Z,94.96
2017-09-28T00:11:39.106Z,94.88
2017-09-28T00:14:08.146Z,94.76
2017-09-28T00:16:38.150Z,93.61
2017-09-28T00:19:07.227Z,93.57
2017-09-28T00:21:36.296Z,91.17
2017-09-28T00:24:05.350Z,90.08
2017-09-28T00:26:34.440Z,89.60
2017-09-28T00:29:04.472Z,91.09
2017-09-28T00:31:34.416Z,91.66
2017-09-28T00:34:04.417Z,91.56
2017-09-28T00:36:34.452Z,90.45
2017-09-28T00:39:03.491Z,90.44
2017-09-28T00:41:33.551Z,93.10
2017-09-28T00:44:02.602Z,91.77
2017-09-28T00:46:31.647Z,92.19
2017-09-28T00:49:00.720Z,92.85
2017-09-28T00:51:29.810Z,92.86
2017-09-28T00:53:59.462Z,92.14
2017-09-28T00:56:28.518Z,91.38
2017-09-28T00:58:57.618Z,91.62
2017-09-28T01:01:26.672Z,91.49
2017-09-28T01:03:55.708Z,93.16
2017-09-28T01:06:24.809Z,92.82
2017-09-28T01:08:54.522Z,92.82
2017-09-28T01:11:23.590Z,93.59
2017-09-28T01:13:52.714Z,93.10
2017-09-28T01:16:21.860Z,94.28
2017-09-28T01:18:50.916Z,93.86
2017-09-28T01:21:19.964Z,92.30
2017-09-28T01:23:49.030Z,95.15
2017-09-28T01:26:18.976Z,95.81
2017-09-28T01:28:48.051Z,95.92
2017-09-28T01:31:17.108Z,95.29
2017-09-28T01:33:47.092Z,93.41
2017-09-28T01:36:16.190Z,93.43
2017-09-28T01:38:45.235Z,93.44
2017-09-28T01:41:14.299Z,92.89
2017-09-28T01:43:43.352Z,93.55
2017-09-28T01:46:12.387Z,93.47
2017-09-28T01:48:41.451Z,95.32
2017-09-28T01:51:10.494Z,96.16
2017-09-28T01:53:39.543Z,95.93
2017-09-28T01:56:08.647Z,97.10
2017-09-28T01:58:42.068Z,97.61
2017-09-28T02:01:11.112Z,97.52
2017-09-28T02:03:40.180Z,96.71
2017-09-28T02:06:09.234Z,96.09
2017-09-28T02:08:38.343Z,96.32
2017-09-28T02:11:07.436Z,96.94
2017-09-28T02:13:36.487Z,97.22
2017-09-28T02:16:05.547Z,96.96
2017-09-28T02:18:34.610Z,96.48
2017-09-28T02:21:03.653Z,95.35
2017-09-28T02:23:32.697Z,92.49
2017-09-28T02:26:01.770Z,93.94
2017-09-28T02:28:31.778Z,95.30
2017-09-28T02:31:00.870Z,96.62
2017-09-28T02:33:29.914Z,96.39
2017-09-28T02:35:58.945Z,96.39
2017-09-28T02:38:28.099Z,95.67
2017-09-28T02:40:57.135Z,94.91
2017-09-28T02:43:26.192Z,94.67
2017-09-28T02:45:55.232Z,94.46
2017-09-28T02:48:24.278Z,95.25
2017-09-28T02:50:53.311Z,96.16
2017-09-28T02:53:22.380Z,95.69
2017-09-28T02:55:51.413Z,94.99
2017-09-28T02:58:20.450Z,94.47
2017-09-28T03:00:49.539Z,94.87
2017-09-28T03:03:19.523Z,96.54
2017-09-28T03:05:48.554Z,97.12
2017-09-28T03:08:17.606Z,95.19
2017-09-28T03:10:46.755Z,95.15
2017-09-28T03:13:15.791Z,94.80
2017-09-28T03:15:44.836Z,94.53
2017-09-28T03:18:13.930Z,94.33
2017-09-28T03:20:43.025Z,94.45
2017-09-28T03:23:12.055Z,94.52
2017-09-28T03:25:41.110Z,94.71
2017-09-28T03:28:10.142Z,96.16
2017-09-28T03:30:39.282Z,97.34
2017-09-28T03:33:08.399Z,97.46
2017-09-28T03:35:37.433Z,97.57
2017-09-28T03:38:06.489Z,97.75
2017-09-28T03:40:35.535Z,97.82
2017-09-28T03:43:04.588Z,97.45
2017-09-28T03:45:33.635Z,97.68
2017-09-28T03:48:02.677Z,98.21
2017-09-28T03:50:31.714Z,98.43
2017-09-28T03:53:00.885Z,98.15
2017-09-28T03:55:29.902Z,97.44
2017-09-28T03:57:58.933Z,97.11
2017-09-28T04:00:28.006Z,97.15
2017-09-28T04:02:57.097Z,96.74
2017-09-28T04:05:26.129Z,96.32
2017-09-28T04:07:55.172Z,94.99
2017-09-28T04:10:24.279Z,95.74
2017-09-28T04:12:53.338Z,96.06
2017-09-28T04:15:22.403Z,96.78
2017-09-28T04:17:51.483Z,97.89
2017-09-28T04:20:20.530Z,98.25
2017-09-28T04:22:49.570Z,98.13
2017-09-28T04:25:18.622Z,97.55
2017-09-28T04:27:47.663Z,96.92
2017-09-28T04:30:16.726Z,96.52
2017-09-28T04:32:46.693Z,96.12
2017-09-28T04:35:15.724Z,96.53
2017-09-28T04:37:44.787Z,96.48
2017-09-28T04:40:16.115Z,96.82
2017-09-28T04:42:46.093Z,96.82
2017-09-28T04:45:15.126Z,96.82
2017-09-28T04:47:44.227Z,96.52
2017-09-28T04:50:13.294Z,96.41
2017-09-28T04:52:42.376Z,96.39
2017-09-28T04:55:11.538Z,97.65
2017-09-28T04:57:40.598Z,98.81
2017-09-28T05:00:09.655Z,99.31
2017-09-28T05:02:38.666Z,98.99
2017-09-28T05:05:07.790Z,99.00
2017-09-28T05:07:36.831Z,99.07
2017-09-28T05:10:06.075Z,99.06
2017-09-28T05:12:35.122Z,99.05
2017-09-28T05:15:04.244Z,98.55
2017-09-28T05:17:33.425Z,98.36
2017-09-28T05:20:03.581Z,97.69
2017-09-28T05:22:32.951Z,96.90
2017-09-28T05:25:02.211Z,97.00
2017-09-28T05:27:31.250Z,96.78
2017-09-28T05:30:00.286Z,96.74
2017-09-28T05:32:29.483Z,96.92
2017-09-28T05:34:58.535Z,97.33
2017-09-28T05:37:27.644Z,96.72
2017-09-28T05:39:57.557Z,95.52
2017-09-28T05:42:26.640Z,93.69
2017-09-28T05:44:55.762Z,94.46
2017-09-28T05:47:25.817Z,95.04
2017-09-28T05:49:54.871Z,95.23
2017-09-28T05:52:23.912Z,95.23
2017-09-28T05:54:53.008Z,94.82
2017-09-28T05:57:22.033Z,94.97
2017-09-28T05:59:51.093Z,94.25
2017-09-28T06:02:20.137Z,94.65
2017-09-28T06:04:49.410Z,94.21
2017-09-28T06:07:18.458Z,94.35
2017-09-28T06:09:47.555Z,92.94
2017-09-28T06:12:16.566Z,93.27
2017-09-28T06:14:45.614Z,93.72
2017-09-28T06:17:14.688Z,93.33
2017-09-28T06:19:46.279Z,93.21
2017-09-28T06:22:19.655Z,93.21
2017-09-28T06:24:48.987Z,92.40
2017-09-28T06:27:18.407Z,91.82
2017-09-28T06:29:47.477Z,91.28
2017-09-28T06:32:16.541Z,91.73
2017-09-28T06:34:45.622Z,91.57
2017-09-28T06:37:14.670Z,91.16
2017-09-28T06:39:43.754Z,91.55
2017-09-28T06:42:12.816Z,90.24
2017-09-28T06:44:41.908Z,89.45
2017-09-28T06:47:10.966Z,89.03
2017-09-28T06:49:40.046Z,88.71
2017-09-28T06:52:09.065Z,88.52
2017-09-28T06:54:38.289Z,88.28
2017-09-28T06:57:07.334Z,88.15
2017-09-28T06:59:40.072Z,88.08
2017-09-28T07:02:22.762Z,87.83
2017-09-28T07:04:53.301Z,87.55
2017-09-28T07:07:23.706Z,87.06
2017-09-28T07:09:53.051Z,87.35
2017-09-28T07:12:22.114Z,86.59
2017-09-28T07:14:52.813Z,85.96
2017-09-28T07:17:22.810Z,86.38
2017-09-28T07:19:53.413Z,86.65
2017-09-28T07:22:23.181Z,86.38
2017-09-28T07:24:52.234Z,86.56
2017-09-28T07:27:22.126Z,86.20
2017-09-28T07:29:51.839Z,85.65
2017-09-28T07:32:20.931Z,84.94
2017-09-28T07:34:52.698Z,84.50
2017-09-28T07:37:22.549Z,84.43
2017-09-28T07:39:51.613Z,83.76
2017-09-28T07:42:21.521Z,84.12
2017-09-28T07:44:50.569Z,83.32
2017-09-28T07:47:20.811Z,84.02
2017-09-28T07:49:51.022Z,83.47
2017-09-28T07:52:20.102Z,83.86
2017-09-28T07:54:50.119Z,83.78
2017-09-28T07:57:20.447Z,83.56
2017-09-28T07:59:49.482Z,83.26
2017-09-28T08:02:19.571Z,82.61
2017-09-28T08:04:48.727Z,81.99
2017-09-28T08:07:17.776Z,82.16
2017-09-28T08:09:46.830Z,81.96
2017-09-28T08:12:15.879Z,81.56
2017-09-28T08:14:44.930Z,80.21
2017-09-28T08:17:13.967Z,80.12
2017-09-28T08:19:43.033Z,79.49
2017-09-28T08:22:12.151Z,78.88
2017-09-28T08:24:41.239Z,78.95
2017-09-28T08:27:10.290Z,78.25
2017-09-28T08:29:39.338Z,78.66
2017-09-28T08:32:08.389Z,78.48
2017-09-28T08:34:37.443Z,77.60
2017-09-28T08:37:06.478Z,76.93
2017-09-28T08:39:35.529Z,77.03
2017-09-28T08:42:04.595Z,74.04
2017-09-28T08:44:33.660Z,73.91
2017-09-28T08:47:02.697Z,72.13
2017-09-28T08:49:33.757Z,72.84
2017-09-28T08:52:02.755Z,70.17
2017-09-28T08:54:31.811Z,67.68
2017-09-28T08:57:00.880Z,65.36
2017-09-28T08:59:29.906Z,66.93
2017-09-28T09:01:58.967Z,66.19
2017-09-28T09:04:29.349Z,60.20
2017-09-28T09:06:58.727Z,62.96
2017-09-28T09:09:27.854Z,62.77
2017-09-28T09:11:57.318Z,64.57
2017-09-28T09:14:26.458Z,61.78
2017-09-28T09:16:55.506Z,61.60
2017-09-28T09:19:24.574Z,53.96
2017-09-28T09:21:53.623Z,59.94
2017-09-28T09:24:22.660Z,59.20
2017-09-28T09:26:52.729Z,54.75
2017-09-28T09:29:21.799Z,56.74
2017-09-28T09:31:51.498Z,51.94
2017-09-28T09:34:20.534Z,49.85
2017-09-28T09:36:50.634Z,51.21
2017-09-28T09:39:20.606Z,50.07
2017-09-28T09:41:49.651Z,51.42
2017-09-28T09:44:19.587Z,50.96
2017-09-28T09:46:48.627Z,49.59
2017-09-28T09:49:17.670Z,46.19
2017-09-28T09:51:46.739Z,46.54
2017-09-28T09:54:15.803Z,46.58
2017-09-28T09:56:45.673Z,39.00
2017-09-28T09:59:14.723Z,45.21
2017-09-28T10:01:44.477Z,44.03
2017-09-28T10:04:14.084Z,47.74
2017-09-28T10:06:49.294Z,42.89
2017-09-28T10:09:24.375Z,44.95
2017-09-28T10:11:58.594Z,45.44
2017-09-28T10:14:30.283Z,38.12
2017-09-28T10:16:59.317Z,43.80
2017-09-28T10:19:30.762Z,46.75
2017-09-28T10:22:00.577Z,46.99
2017-09-28T10:24:29.800Z,39.50
2017-09-28T10:27:01.872Z,45.96
2017-09-28T10:29:31.977Z,46.28
2017-09-28T10:32:01.002Z,41.49
2017-09-28T10:34:33.135Z,46.61
2017-09-28T10:37:03.284Z,42.69
2017-09-28T10:39:32.357Z,44.76
2017-09-28T10:42:04.792Z,45.78
2017-09-28T10:44:34.807Z,45.33
2017-09-28T10:47:03.847Z,47.42
2017-09-28T10:49:35.151Z,46.67
2017-09-28T10:52:05.104Z,46.78
2017-09-28T10:54:34.171Z,46.67
2017-09-28T10:57:04.589Z,46.30
2017-09-28T10:59:34.511Z,46.76
2017-09-28T11:02:03.539Z,46.43
2017-09-28T11:04:35.330Z,44.32
2017-09-28T11:07:05.205Z,45.00
2017-09-28T11:09:34.289Z,41.41
2017-09-28T11:12:04.995Z,42.64
2017-09-28T11:14:34.837Z,40.09
2017-09-28T11:17:03.970Z,40.08
2017-09-28T11:19:34.561Z,38.04
2017-09-28T11:22:06.143Z,35.47
2017-09-28T11:24:35.941Z,34.68
2017-09-28T11:27:08.413Z,35.45
2017-09-28T11:29:37.894Z,35.40
2017-09-28T11:32:06.982Z,39.15
2017-09-28T11:34:36.907Z,37.66
2017-09-28T11:37:05.956Z,39.25
2017-09-28T11:39:35.007Z,39.84
2017-09-28T11:42:04.428Z,36.97
2017-09-28T11:44:33.503Z,39.48
2017-09-28T11:47:04.644Z,37.71
2017-09-28T11:49:34.447Z,40.35
2017-09-28T11:52:03.477Z,38.39
2017-09-28T11:54:34.259Z,37.27
2017-09-28T11:57:03.564Z,37.09
2017-09-28T11:59:32.667Z,37.08
2017-09-28T12:02:04.743Z,36.32
2017-09-28T12:04:35.332Z,34.17
2017-09-28T12:07:04.419Z,35.52
2017-09-28T12:09:35.858Z,36.17
2017-09-28T12:12:05.636Z,38.36
2017-09-28T12:14:34.667Z,36.81
2017-09-28T12:17:05.546Z,37.53
2017-09-28T12:19:35.381Z,37.85
2017-09-28T12:22:04.412Z,37.03
2017-09-28T12:24:37.769Z,34.86
2017-09-28T12:27:06.820Z,34.80
2017-09-28T12:29:36.964Z,34.44
2017-09-28T12:32:07.849Z,35.34
2017-09-28T12:34:36.868Z,34.76
2017-09-28T12:37:05.911Z,34.79
2017-09-28T12:39:34.990Z,34.92
2017-09-28T12:42:04.032Z,34.53
2017-09-28T12:44:33.075Z,35.39
2017-09-28T12:47:02.767Z,36.08
2017-09-28T12:49:31.823Z,36.07
2017-09-28T12:52:00.858Z,34.99
2017-09-28T12:54:29.952Z,33.39
2017-09-28T12:56:59.018Z,34.71
2017-09-28T12:59:28.079Z,35.43
2017-09-28T13:01:57.189Z,35.35
2017-09-28T13:04:26.207Z,35.45
2017-09-28T13:06:55.252Z,35.16
2017-09-28T13:09:24.326Z,34.65
2017-09-28T13:11:53.347Z,35.09
2017-09-28T13:14:22.415Z,35.45
2017-09-28T13:16:51.487Z,35.13
2017-09-28T13:19:20.534Z,35.62
2017-09-28T13:21:49.640Z,35.12
2017-09-28T13:24:18.737Z,34.16
2017-09-28T13:26:47.995Z,34.24
2017-09-28T13:29:17.059Z,33.92
2017-09-28T13:31:46.119Z,33.75
2017-09-28T13:34:15.319Z,34.43
2017-09-28T13:36:44.392Z,34.89
2017-09-28T13:39:13.442Z,35.96
2017-09-28T13:41:42.532Z,36.34
2017-09-28T13:44:11.571Z,36.59
2017-09-28T13:46:40.647Z,37.92
2017-09-28T13:49:09.709Z,37.85
2017-09-28T13:51:38.727Z,38.31
2017-09-28T13:54:07.812Z,37.95
2017-09-28T13:56:36.858Z,38.13
2017-09-28T13:59:05.979Z,40.17
2017-09-28T14:01:35.102Z,42.74
2017-09-28T14:04:04.138Z,43.99
2017-09-28T14:06:33.228Z,43.65
2017-09-28T14:09:02.301Z,44.35
2017-09-28T14:11:31.374Z,42.82
2017-09-28T14:14:00.570Z,43.98
2017-09-28T14:16:29.678Z,43.65
2017-09-28T14:18:58.760Z,45.54
2017-09-28T14:21:27.900Z,41.33
2017-09-28T14:23:56.968Z,43.62
2017-09-28T14:26:26.001Z,43.34
2017-09-28T14:28:55.079Z,43.81
2017-09-28T14:31:24.127Z,42.40
2017-09-28T14:33:53.221Z,40.64
2017-09-28T14:36:22.320Z,38.94
2017-09-28T14:38:51.512Z,38.06
2017-09-28T14:41:20.555Z,38.63
2017-09-28T14:43:49.599Z,40.95
2017-09-28T14:46:18.749Z,42.16
2017-09-28T14:48:47.798Z,43.61
2017-09-28T14:51:16.843Z,45.61
2017-09-28T14:53:46.893Z,44.14
2017-09-28T14:56:15.954Z,44.57
2017-09-28T14:58:45.092Z,43.93
2017-09-28T15:01:14.207Z,44.02
2017-09-28T15:03:46.130Z,43.54
2017-09-28T15:06:16.135Z,43.89
2017-09-28T15:08:45.216Z,43.65
2017-09-28T15:11:15.299Z,44.11
2017-09-28T15:13:44.345Z,44.94
2017-09-28T15:16:13.416Z,44.96
2017-09-28T15:18:42.458Z,44.37
2017-09-28T15:21:11.498Z,46.14
2017-09-28T15:23:40.558Z,49.00
2017-09-28T15:26:09.607Z,49.90
2017-09-28T15:28:38.650Z,46.42
2017-09-28T15:31:07.701Z,46.39
2017-09-28T15:33:36.741Z,46.30
2017-09-28T15:36:05.787Z,45.98
2017-09-28T15:38:34.873Z,47.54
2017-09-28T15:41:04.932Z,47.64
2017-09-28T15:43:34.055Z,51.14
2017-09-28T15:46:03.861Z,53.70
2017-09-28T15:48:33.586Z,51.82
2017-09-28T15:51:02.855Z,56.72
2017-09-28T15:53:35.233Z,54.46
2017-09-28T15:56:04.429Z,53.07
2017-09-28T15:58:33.622Z,52.06
2017-09-28T16:01:03.031Z,52.61
2017-09-28T16:03:32.882Z,53.52
2017-09-28T16:06:02.286Z,53.67
2017-09-28T16:08:31.387Z,53.53
2017-09-28T16:11:00.437Z,52.95
2017-09-28T16:13:30.505Z,55.11
2017-09-28T16:16:00.067Z,56.73
2017-09-28T16:18:29.123Z,58.23
2017-09-28T16:20:58.177Z,59.41
2017-09-28T16:23:27.264Z,59.95
2017-09-28T16:25:56.317Z,61.94
2017-09-28T16:28:25.415Z,70.62
2017-09-28T16:30:54.452Z,66.84
2017-09-28T16:33:23.509Z,67.20
2017-09-28T16:35:52.604Z,73.36
2017-09-28T16:38:21.652Z,72.88
2017-09-28T16:40:50.697Z,69.82
2017-09-28T16:43:19.738Z,73.78
2017-09-28T16:45:48.787Z,71.49
2017-09-28T16:48:18.068Z,71.56
2017-09-28T16:50:47.129Z,71.52
2017-09-28T16:53:16.170Z,73.00
2017-09-28T16:55:45.241Z,73.68
2017-09-28T16:58:14.274Z,72.22
2017-09-28T17:00:43.306Z,74.69
2017-09-28T17:03:12.398Z,75.64
2017-09-28T17:05:41.799Z,73.04
2017-09-28T17:08:11.540Z,73.37
2017-09-28T17:10:40.648Z,74.73
2017-09-28T17:13:09.864Z,74.81
2017-09-28T17:15:39.166Z,75.59
2017-09-28T17:18:08.243Z,79.64
2017-09-28T17:20:37.822Z,79.41
2017-09-28T17:23:06.893Z,77.56
2017-09-28T17:25:35.986Z,76.40
2017-09-28T17:28:06.211Z,80.64
2017-09-28T17:30:35.313Z,78.47
2017-09-28T17:33:04.393Z,77.42
2017-09-28T17:35:33.482Z,77.98
2017-09-28T17:38:02.635Z,77.79
2017-09-28T17:40:31.819Z,78.38
2017-09-28T17:43:00.993Z,81.04
2017-09-28T17:45:30.115Z,78.67
2017-09-28T17:48:00.164Z,84.98
2017-09-28T17:50:29.287Z,80.40
2017-09-28T17:52:58.407Z,80.14
2017-09-28T17:55:27.465Z,79.84
2017-09-28T17:57:56.634Z,82.43
2017-09-28T18:00:27.783Z,79.31
2017-09-28T18:02:56.883Z,80.02
2017-09-28T18:05:26.401Z,82.65
2017-09-28T18:07:55.445Z,85.47
2017-09-28T18:10:25.543Z,84.03
2017-09-28T18:12:55.570Z,87.05
2017-09-28T18:15:24.607Z,87.51
2017-09-28T18:17:55.794Z,86.56
2017-09-28T18:20:24.885Z,82.85
2017-09-28T18:22:53.978Z,84.18
2017-09-28T18:25:24.182Z,83.11
2017-09-28T18:27:53.304Z,81.83
2017-09-28T18:30:23.349Z,82.28
2017-09-28T18:32:52.407Z,83.43
2017-09-28T18:35:22.454Z,85.54
2017-09-28T18:37:51.764Z,85.75
2017-09-28T18:40:20.873Z,86.50
2017-09-28T18:42:50.212Z,85.62
2017-09-28T18:45:19.460Z,86.59
2017-09-28T18:47:48.543Z,86.83
2017-09-28T18:50:17.974Z,88.79
2017-09-28T18:52:47.074Z,86.24
2017-09-28T18:55:16.152Z,85.95
2017-09-28T18:57:45.285Z,86.29
2017-09-28T19:00:15.219Z,85.81
2017-09-28T19:02:44.341Z,85.80
2017-09-28T19:05:13.471Z,87.65
2017-09-28T19:07:42.504Z,86.79
2017-09-28T19:10:11.741Z,85.92
2017-09-28T19:12:40.790Z,86.68
2017-09-28T19:15:09.847Z,85.05
2017-09-28T19:17:39.196Z,85.45
2017-09-28T19:20:08.291Z,84.54
2017-09-28T19:22:37.323Z,87.51
2017-09-28T19:25:06.832Z,92.29
2017-09-28T19:27:35.873Z,94.80
2017-09-28T19:30:05.318Z,93.02
2017-09-28T19:32:34.459Z,91.55
2017-09-28T19:35:03.498Z,88.74
2017-09-28T19:37:32.577Z,87.25
2017-09-28T19:40:01.647Z,87.40
2017-09-28T19:42:30.707Z,87.62
2017-09-28T19:44:59.761Z,88.72
2017-09-28T19:47:28.805Z,88.11
2017-09-28T19:49:57.976Z,87.98
2017-09-28T19:52:27.100Z,87.54
2017-09-28T19:54:56.173Z,87.96
2017-09-28T19:57:26.588Z,92.03
2017-09-28T19:59:55.656Z,91.69
2017-09-28T20:02:24.808Z,89.56
2017-09-28T20:04:53.870Z,88.62
2017-09-28T20:07:22.923Z,87.99
2017-09-28T20:09:52.983Z,88.48
2017-09-28T20:12:22.902Z,88.16
2017-09-28T20:14:53.270Z,88.19
2017-09-28T20:17:22.394Z,88.06
2017-09-28T20:19:51.545Z,87.42
2017-09-28T20:22:20.752Z,87.69
2017-09-28T20:24:49.831Z,87.32
2017-09-28T20:27:20.075Z,88.98
2017-09-28T20:29:49.154Z,87.81
2017-09-28T20:32:18.234Z,87.45
2017-09-28T20:34:47.342Z,87.73
2017-09-28T20:37:16.416Z,88.08
2017-09-28T20:39:45.496Z,87.84
2017-09-28T20:42:14.584Z,87.08
2017-09-28T20:44:43.640Z,86.83
2017-09-28T20:47:12.698Z,87.92
2017-09-28T20:49:41.755Z,87.36
2017-09-28T20:52:10.816Z,87.92
2017-09-28T20:54:39.884Z,88.37
2017-09-28T20:57:08.956Z,89.52
2017-09-28T20:59:38.009Z,89.24
2017-09-28T21:02:07.054Z,88.82
2017-09-28T21:04:38.218Z,88.68
2017-09-28T21:07:11.757Z,89.10
2017-09-28T21:09:40.815Z,88.81
2017-09-28T21:12:10.063Z,88.64
2017-09-28T21:14:39.105Z,88.93
2017-09-28T21:17:08.180Z,88.43
2017-09-28T21:19:38.755Z,88.60
2017-09-28T21:22:07.803Z,89.21
2017-09-28T21:24:37.121Z,89.76
2017-09-28T21:27:08.458Z,88.52
2017-09-28T21:29:42.542Z,88.66
2017-09-28T21:32:15.129Z,89.18
2017-09-28T21:34:47.082Z,88.33
2017-09-28T21:37:16.983Z,89.03
2017-09-28T21:39:46.210Z,89.35
2017-09-28T21:42:15.231Z,89.21
2017-09-28T21:44:44.358Z,88.73
2017-09-28T21:47:13.441Z,89.81
2017-09-28T21:49:42.535Z,91.67
2017-09-28T21:52:11.687Z,91.81
2017-09-28T21:54:41.146Z,90.13
2017-09-28T21:57:14.062Z,89.68
2017-09-28T21:59:43.478Z,90.33
2017-09-28T22:02:12.832Z,90.05
2017-09-28T22:04:42.211Z,90.52
2017-09-28T22:07:12.307Z,92.98
2017-09-28T22:09:41.448Z,93.45
2017-09-28T22:12:10.557Z,96.23
2017-09-28T22:14:41.011Z,96.58
2017-09-28T22:17:11.414Z,95.42
2017-09-28T22:19:41.381Z,94.17
2017-09-28T22:22:11.888Z,92.88
2017-09-28T22:24:42.368Z,92.90
2017-09-28T22:27:11.522Z,93.51
2017-09-28T22:29:40.608Z,92.21
2017-09-28T22:32:11.302Z,92.37
2017-09-28T22:34:41.437Z,95.16
2017-09-28T22:37:10.970Z,93.66
2017-09-28T22:39:40.615Z,92.52
2017-09-28T22:42:10.808Z,93.65
2017-09-28T22:44:40.016Z,92.32
2017-09-28T22:47:10.852Z,92.03
2017-09-28T22:49:39.942Z,91.78
2017-09-28T22:52:10.073Z,91.88
2017-09-28T22:54:39.959Z,91.71
2017-09-28T22:57:10.818Z,92.08
2017-09-28T22:59:41.958Z,92.42
2017-09-28T23:02:12.492Z,93.11
2017-09-28T23:04:41.791Z,92.67
2017-09-28T23:07:10.827Z,93.09
2017-09-28T23:09:40.519Z,92.92
2017-09-28T23:12:09.860Z,93.61
2017-09-28T23:14:40.158Z,93.59
2017-09-28T23:17:10.201Z,94.37
2017-09-28T23:19:39.475Z,93.87
2017-09-28T23:22:08.944Z,90.76
2017-09-28T23:24:39.302Z,90.56
2017-09-28T23:27:08.433Z,89.90
2017-09-28T23:29:37.795Z,90.24
2017-09-28T23:32:06.860Z,89.57
2017-09-28T23:34:36.131Z,90.88
2017-09-28T23:37:05.171Z,90.37
2017-09-28T23:39:35.932Z,90.93
2017-09-28T23:42:04.965Z,90.58
2017-09-28T23:44:34.039Z,91.02
2017-09-28T23:47:03.999Z,91.32
2017-09-28T23:49:33.050Z,91.48
2017-09-28T23:52:02.107Z,91.17
2017-09-28T23:54:31.170Z,91.02
2017-09-28T23:57:03.867Z,91.41
2017-09-28T23:59:32.951Z,93.65
